Time;durP1;ratioP1;P1;durP2;ratioP2;P2;SDS_P1;SDS_P2;PMS_P1;PMS_P2;Temp;Humidity;BMP_temperature;BMP_pressure;BME280_temperature;BME280_humidity;BME280_pressure;Samples;Min_cycle;Max_cycle;Signal;HPM_P1;HPM_P2
2023/03/05 00:01:08;;;;;;;10.35;2.75;;;;;;;;;;5012665;28;100088;-75
2023/03/05 00:03:35;;;;;;;14.77;3.03;;;;;;;;;;5031607;28;98368;-76
2023/03/05 00:06:01;;;;;;;5.72;2.00;;;;;;;;;;5016112;27;99403;-75
2023/03/05 00:08:28;;;;;;;12.13;2.20;;;;;;;;;;5015772;28;98625;-74
2023/03/05 00:10:58;;;;;;;9.88;2.20;;;;;;;;;;5014785;28;98223;-75
2023/03/05 00:13:24;;;;;;;8.70;2.88;;;;;;;;;;5010324;28;99013;-75
2023/03/05 00:15:52;;;;;;;10.35;2.50;;;;;;;;;;5010677;28;100107;-75
2023/03/05 00:18:19;;;;;;;9.90;3.00;;;;;;;;;;5011220;28;98252;-75
2023/03/05 00:20:45;;;;;;;10.57;2.38;;;;;;;;;;5014055;28;99446;-75
2023/03/05 00:23:11;;;;;;;10.52;2.25;;;;;;;;;;5026806;28;98247;-76
2023/03/05 00:25:39;;;;;;;11.32;2.45;;;;;;;;;;5031096;28;98739;-75
2023/03/05 00:28:05;;;;;;;13.18;2.97;;;;;;;;;;5029608;28;100048;-75
2023/03/05 00:30:31;;;;;;;9.30;2.10;;;;;;;;;;5030001;27;98271;-75
2023/03/05 00:33:01;;;;;;;8.85;2.28;;;;;;;;;;5030224;28;98593;-75
2023/03/05 00:35:28;;;;;;;12.35;3.15;;;;;;;;;;5028664;28;99105;-75
2023/03/05 00:37:54;;;;;;;13.60;2.97;;;;;;;;;;5030560;27;98367;-75
2023/03/05 00:40:21;;;;;;;9.45;2.80;;;;;;;;;;5030417;27;99363;-75
2023/03/05 00:42:47;;;;;;;7.60;2.50;;;;;;;;;;5031894;28;100152;-76
2023/03/05 00:45:16;;;;;;;7.40;3.67;;;;;;;;;;5031455;27;98739;-75
2023/03/05 00:47:43;;;;;;;12.25;3.17;;;;;;;;;;5030972;28;98836;-75
2023/03/05 00:50:09;;;;;;;9.15;3.05;;;;;;;;;;5028973;28;98126;-75
2023/03/05 00:52:36;;;;;;;14.00;2.78;;;;;;;;;;5031222;28;98770;-75
2023/03/05 00:55:02;;;;;;;8.68;2.92;;;;;;;;;;5027949;28;100189;-75
2023/03/05 00:57:29;;;;;;;11.57;3.80;;;;;;;;;;5028507;28;98633;-75
2023/03/05 00:59:55;;;;;;;10.30;3.15;;;;;;;;;;5030838;27;98361;-75
2023/03/05 01:02:21;;;;;;;10.98;3.17;;;;;;;;;;5033878;28;99042;-76
2023/03/05 01:04:49;;;;;;;16.23;3.15;;;;;;;;;;5029558;27;98596;-77
2023/03/05 01:07:15;;;;;;;14.02;4.15;;;;;;;;;;5030182;27;99385;-74
2023/03/05 01:09:41;;;;;;;10.65;3.38;;;;;;;;;;5013244;28;98456;-75
2023/03/05 01:12:08;;;;;;;16.58;3.88;;;;;;;;;;5010364;28;100011;-75
2023/03/05 01:14:35;;;;;;;12.48;3.53;;;;;;;;;;5035413;27;101128;-74
2023/03/05 01:17:03;;;;;;;6.65;3.30;;;;;;;;;;5049660;27;98172;-75
2023/03/05 01:19:29;;;;;;;11.13;3.03;;;;;;;;;;5052099;27;98468;-77
2023/03/05 01:22:03;;;;;;;5.97;3.05;;;;;;;;;;5050077;27;98822;-76
2023/03/05 01:24:30;;;;;;;15.75;4.25;;;;;;;;;;5052945;27;98808;-77
2023/03/05 01:26:57;;;;;;;12.52;3.08;;;;;;;;;;5021176;27;98948;-74
2023/03/05 01:29:25;;;;;;;15.60;3.53;;;;;;;;;;5010975;28;98275;-74
2023/03/05 01:31:51;;;;;;;9.50;3.40;;;;;;;;;;5028072;28;99786;-74
2023/03/05 01:34:18;;;;;;;10.93;3.25;;;;;;;;;;5030350;28;99947;-74
2023/03/05 01:36:44;;;;;;;13.27;3.22;;;;;;;;;;5030280;28;98147;-75
2023/03/05 01:39:11;;;;;;;12.43;2.88;;;;;;;;;;5028428;28;99872;-76
2023/03/05 01:41:38;;;;;;;12.00;3.20;;;;;;;;;;5030141;28;98981;-76
2023/03/05 01:44:05;;;;;;;13.75;3.30;;;;;;;;;;5029804;28;98187;-77
2023/03/05 01:46:33;;;;;;;11.43;3.20;;;;;;;;;;5030602;28;98398;-75
2023/03/05 01:49:05;;;;;;;12.75;3.50;;;;;;;;;;5028937;27;98252;-74
2023/03/05 01:51:35;;;;;;;12.95;3.05;;;;;;;;;;5030438;27;98268;-76
2023/03/05 01:54:02;;;;;;;15.82;3.22;;;;;;;;;;5029114;28;98949;-76
2023/03/05 01:56:29;;;;;;;11.73;3.47;;;;;;;;;;5028225;28;98358;-76
2023/03/05 01:59:02;;;;;;;11.52;3.15;;;;;;;;;;5027772;27;99350;-75
2023/03/05 02:01:30;;;;;;;8.52;3.08;;;;;;;;;;5029949;27;98077;-75
2023/03/05 02:03:56;;;;;;;9.82;2.92;;;;;;;;;;5029076;27;98183;-75
2023/03/05 02:06:23;;;;;;;13.35;2.67;;;;;;;;;;5029160;28;98737;-75
2023/03/05 02:08:49;;;;;;;13.43;3.70;;;;;;;;;;5023138;27;98864;-75
2023/03/05 02:11:16;;;;;;;8.68;3.35;;;;;;;;;;5008380;28;99392;-75
2023/03/05 02:13:42;;;;;;;11.82;3.00;;;;;;;;;;5007445;28;99947;-76
2023/03/05 02:16:08;;;;;;;11.07;3.22;;;;;;;;;;5009510;28;98266;-74
2023/03/05 02:18:35;;;;;;;9.98;2.58;;;;;;;;;;5009890;28;98445;-74
2023/03/05 02:21:03;;;;;;;16.33;3.90;;;;;;;;;;5008917;28;99641;-74
2023/03/05 02:23:32;;;;;;;12.35;3.75;;;;;;;;;;5041550;27;98285;-75
2023/03/05 02:25:58;;;;;;;12.32;3.22;;;;;;;;;;5009218;28;98679;-75
2023/03/05 02:28:29;;;;;;;15.43;3.40;;;;;;;;;;5007729;28;101434;-75
2023/03/05 02:30:55;;;;;;;9.65;2.75;;;;;;;;;;5012057;28;98203;-76
2023/03/05 02:33:25;;;;;;;17.23;3.92;;;;;;;;;;5008766;28;100031;-75
2023/03/05 02:35:52;;;;;;;6.40;3.50;;;;;;;;;;5006468;28;98479;-75
2023/03/05 02:38:19;;;;;;;9.88;3.70;;;;;;;;;;5009873;28;98410;-75
2023/03/05 02:40:46;;;;;;;11.18;4.07;;;;;;;;;;5008064;28;101241;-75
2023/03/05 02:43:14;;;;;;;13.73;4.55;;;;;;;;;;5006997;28;98303;-75
2023/03/05 02:45:40;;;;;;;12.88;3.70;;;;;;;;;;5007420;28;99586;-75
2023/03/05 02:48:07;;;;;;;9.43;4.03;;;;;;;;;;5007793;28;99932;-76
2023/03/05 02:50:34;;;;;;;10.50;3.78;;;;;;;;;;5007029;28;98290;-75
2023/03/05 02:53:01;;;;;;;10.93;3.38;;;;;;;;;;5010539;28;98612;-75
2023/03/05 02:55:28;;;;;;;7.53;3.33;;;;;;;;;;5007342;28;98300;-75
2023/03/05 02:57:54;;;;;;;4.22;2.88;;;;;;;;;;5007479;28;100939;-75
2023/03/05 03:00:21;;;;;;;9.20;3.03;;;;;;;;;;5007100;28;101164;-75
2023/03/05 03:02:48;;;;;;;13.70;3.13;;;;;;;;;;5009102;28;98390;-75
2023/03/05 03:05:15;;;;;;;4.93;3.03;;;;;;;;;;5012540;28;99296;-75
2023/03/05 03:07:44;;;;;;;10.65;3.42;;;;;;;;;;5012308;28;98984;-76
2023/03/05 03:10:10;;;;;;;12.68;3.50;;;;;;;;;;5011694;28;98280;-76
2023/03/05 03:12:38;;;;;;;12.32;3.65;;;;;;;;;;5015644;28;98122;-75
2023/03/05 03:15:05;;;;;;;13.25;3.33;;;;;;;;;;5011862;28;98269;-75
2023/03/05 03:17:33;;;;;;;10.98;3.17;;;;;;;;;;5011404;28;98717;-75
2023/03/05 03:19:59;;;;;;;12.43;3.35;;;;;;;;;;5011688;28;100102;-75
2023/03/05 03:22:26;;;;;;;15.05;3.35;;;;;;;;;;5012481;28;98621;-75
2023/03/05 03:24:52;;;;;;;13.00;3.60;;;;;;;;;;5010087;28;99663;-75
2023/03/05 03:27:18;;;;;;;12.90;3.35;;;;;;;;;;5019418;28;98974;-76
2023/03/05 03:29:45;;;;;;;5.60;2.95;;;;;;;;;;5019224;28;98171;-75
2023/03/05 03:32:11;;;;;;;10.10;3.30;;;;;;;;;;5010146;28;98576;-75
2023/03/05 03:34:38;;;;;;;8.48;3.20;;;;;;;;;;5015031;28;98925;-75
2023/03/05 03:37:04;;;;;;;7.75;2.75;;;;;;;;;;5011434;28;98696;-75
2023/03/05 03:39:31;;;;;;;10.95;3.17;;;;;;;;;;5010940;28;100227;-75
2023/03/05 03:41:57;;;;;;;10.82;3.05;;;;;;;;;;5011789;28;98685;-76
2023/03/05 03:44:23;;;;;;;9.15;2.60;;;;;;;;;;5011292;28;100093;-75
2023/03/05 03:46:50;;;;;;;12.52;2.80;;;;;;;;;;5024522;28;100073;-75
2023/03/05 03:49:21;;;;;;;7.45;2.65;;;;;;;;;;5029623;28;98354;-75
2023/03/05 03:51:47;;;;;;;10.25;2.85;;;;;;;;;;5031724;28;99674;-75
2023/03/05 03:54:15;;;;;;;5.78;3.08;;;;;;;;;;5031123;27;99013;-75
2023/03/05 03:56:41;;;;;;;7.30;2.40;;;;;;;;;;5033967;28;98154;-75
2023/03/05 03:59:08;;;;;;;12.18;2.58;;;;;;;;;;5029514;28;99956;-75
2023/03/05 04:01:34;;;;;;;4.65;2.47;;;;;;;;;;5030697;28;98269;-75
2023/03/05 04:04:01;;;;;;;11.13;3.67;;;;;;;;;;5016620;27;99931;-74
2023/03/05 04:06:28;;;;;;;6.30;2.75;;;;;;;;;;5010950;28;100042;-75
2023/03/05 04:08:54;;;;;;;9.65;2.50;;;;;;;;;;5021221;28;98251;-74
2023/03/05 04:11:21;;;;;;;7.43;2.72;;;;;;;;;;5036832;28;98363;-74
2023/03/05 04:13:47;;;;;;;12.88;2.72;;;;;;;;;;5037130;28;99999;-75
2023/03/05 04:16:14;;;;;;;9.63;2.63;;;;;;;;;;5036884;27;98286;-75
2023/03/05 04:18:41;;;;;;;8.25;3.03;;;;;;;;;;5038510;27;98585;-75
2023/03/05 04:21:08;;;;;;;10.43;3.08;;;;;;;;;;5034347;27;98775;-75
2023/03/05 04:23:34;;;;;;;8.68;2.63;;;;;;;;;;5036493;27;99539;-75
2023/03/05 04:26:02;;;;;;;6.47;2.03;;;;;;;;;;5031389;27;98920;-74
2023/03/05 04:28:29;;;;;;;7.47;3.45;;;;;;;;;;5029738;27;98272;-75
2023/03/05 04:30:55;;;;;;;10.85;2.78;;;;;;;;;;5029733;27;98605;-75
2023/03/05 04:33:22;;;;;;;8.93;2.70;;;;;;;;;;5029827;27;99830;-75
2023/03/05 04:35:48;;;;;;;3.15;2.17;;;;;;;;;;5029277;28;98767;-74
2023/03/05 04:38:15;;;;;;;10.88;2.97;;;;;;;;;;5029921;27;99434;-75
2023/03/05 04:40:42;;;;;;;5.45;2.20;;;;;;;;;;5032297;28;100045;-75
2023/03/05 04:43:09;;;;;;;6.75;2.40;;;;;;;;;;5030123;28;99753;-75
2023/03/05 04:45:40;;;;;;;7.38;2.85;;;;;;;;;;5029319;27;99308;-76
2023/03/05 04:48:07;;;;;;;9.70;2.63;;;;;;;;;;5028455;27;98258;-75
2023/03/05 04:50:33;;;;;;;12.15;2.88;;;;;;;;;;5029113;27;98746;-75
2023/03/05 04:53:00;;;;;;;6.07;2.65;;;;;;;;;;5029412;28;99862;-75
2023/03/05 04:55:26;;;;;;;3.78;2.03;;;;;;;;;;4971292;28;1128511;-75
2023/03/05 04:57:52;;;;;;;7.68;2.30;;;;;;;;;;5010101;28;98404;-75
2023/03/05 05:00:19;;;;;;;5.15;2.08;;;;;;;;;;5010314;28;99039;-74
2023/03/05 05:02:46;;;;;;;12.05;2.30;;;;;;;;;;5012173;28;99121;-75
2023/03/05 05:05:14;;;;;;;4.18;1.42;;;;;;;;;;5010868;28;100354;-75
2023/03/05 05:07:41;;;;;;;8.73;3.30;;;;;;;;;;5010637;28;98344;-74
2023/03/05 05:10:08;;;;;;;3.60;2.20;;;;;;;;;;5029107;27;98188;-74
2023/03/05 05:12:35;;;;;;;4.75;2.00;;;;;;;;;;5029820;27;99932;-75
2023/03/05 05:15:02;;;;;;;8.65;2.20;;;;;;;;;;5030491;28;98097;-75
2023/03/05 05:17:31;;;;;;;5.43;1.90;;;;;;;;;;5029818;27;99868;-75
2023/03/05 05:19:58;;;;;;;4.68;1.95;;;;;;;;;;5030164;27;99088;-75
2023/03/05 05:22:26;;;;;;;4.28;2.05;;;;;;;;;;5033709;27;97987;-75
2023/03/05 05:24:53;;;;;;;8.95;1.90;;;;;;;;;;5028805;27;98838;-75
2023/03/05 05:27:19;;;;;;;14.82;2.28;;;;;;;;;;5027487;27;98305;-75
2023/03/05 05:29:49;;;;;;;5.35;1.77;;;;;;;;;;5030058;27;98628;-75
2023/03/05 05:32:16;;;;;;;8.55;2.28;;;;;;;;;;5029781;27;100300;-75
2023/03/05 05:34:42;;;;;;;5.82;1.85;;;;;;;;;;5030147;27;98441;-75
2023/03/05 05:37:11;;;;;;;7.10;2.10;;;;;;;;;;5027217;28;99478;-75
2023/03/05 05:39:37;;;;;;;6.45;2.22;;;;;;;;;;5030039;28;100010;-75
2023/03/05 05:42:05;;;;;;;7.93;2.95;;;;;;;;;;5029871;28;98320;-74
2023/03/05 05:44:33;;;;;;;4.05;2.20;;;;;;;;;;5030141;27;98468;-75
2023/03/05 05:47:00;;;;;;;8.20;2.33;;;;;;;;;;5008433;28;98320;-75
2023/03/05 05:49:26;;;;;;;8.15;2.97;;;;;;;;;;5009467;28;99464;-74
2023/03/05 05:51:53;;;;;;;5.93;2.40;;;;;;;;;;5007635;28;98852;-75
2023/03/05 05:54:19;;;;;;;7.20;2.35;;;;;;;;;;5009168;28;98220;-74
2023/03/05 05:56:46;;;;;;;5.55;3.05;;;;;;;;;;5009792;28;98576;-75
2023/03/05 05:59:12;;;;;;;6.00;2.10;;;;;;;;;;5008675;28;100643;-75
2023/03/05 06:01:38;;;;;;;8.70;2.70;;;;;;;;;;5013287;28;98234;-74
2023/03/05 06:04:05;;;;;;;10.23;3.00;;;;;;;;;;5029277;27;98919;-74
2023/03/05 06:06:33;;;;;;;9.93;2.78;;;;;;;;;;5032210;27;99879;-74
2023/03/05 06:09:00;;;;;;;9.25;2.80;;;;;;;;;;5018252;27;98733;-74
2023/03/05 06:11:26;;;;;;;10.77;3.63;;;;;;;;;;5009001;28;99446;-75
2023/03/05 06:13:53;;;;;;;6.97;2.75;;;;;;;;;;5008148;28;98361;-75
2023/03/05 06:16:22;;;;;;;8.02;2.75;;;;;;;;;;5008623;28;99574;-74
2023/03/05 06:18:50;;;;;;;8.07;2.92;;;;;;;;;;5008612;28;98913;-75
2023/03/05 06:21:17;;;;;;;5.97;2.80;;;;;;;;;;5008682;28;98260;-75
2023/03/05 06:23:44;;;;;;;5.32;2.53;;;;;;;;;;5010868;28;98857;-74
2023/03/05 06:26:11;;;;;;;7.05;2.58;;;;;;;;;;5008349;28;100152;-75
2023/03/05 06:28:39;;;;;;;6.03;2.65;;;;;;;;;;5013044;28;98378;-74
2023/03/05 06:31:07;;;;;;;7.28;2.55;;;;;;;;;;5008268;28;99226;-74
2023/03/05 06:33:33;;;;;;;8.70;2.47;;;;;;;;;;5008901;28;98673;-74
2023/03/05 06:36:02;;;;;;;4.63;2.65;;;;;;;;;;5009422;28;99972;-74
2023/03/05 06:38:29;;;;;;;9.30;3.28;;;;;;;;;;5016255;27;101029;-74
2023/03/05 06:40:59;;;;;;;5.82;3.05;;;;;;;;;;5022470;27;98303;-74
2023/03/05 06:43:25;;;;;;;6.53;2.70;;;;;;;;;;5026926;27;99521;-74
2023/03/05 06:46:02;;;;;;;8.00;2.97;;;;;;;;;;5016779;28;100247;-74
2023/03/05 06:48:29;;;;;;;7.65;2.63;;;;;;;;;;5027814;28;99313;-75
2023/03/05 06:50:55;;;;;;;4.68;3.40;;;;;;;;;;5032569;28;98316;-74
2023/03/05 06:53:22;;;;;;;8.13;3.80;;;;;;;;;;5028964;28;98175;-75
2023/03/05 06:55:49;;;;;;;7.22;5.82;;;;;;;;;;5024772;27;99517;-75
2023/03/05 06:58:15;;;;;;;12.90;9.05;;;;;;;;;;5028733;27;99195;-74
2023/03/05 07:00:42;;;;;;;18.00;7.38;;;;;;;;;;5019575;28;98211;-74
2023/03/05 07:03:09;;;;;;;9.32;4.75;;;;;;;;;;5023944;27;99434;-74
2023/03/05 07:05:42;;;;;;;5.25;3.15;;;;;;;;;;5027360;27;99864;-74
2023/03/05 07:08:11;;;;;;;5.35;2.72;;;;;;;;;;5019729;28;99514;-73
2023/03/05 07:10:41;;;;;;;9.68;3.03;;;;;;;;;;5018972;28;99074;-75
2023/03/05 07:13:08;;;;;;;4.13;2.85;;;;;;;;;;5031446;27;98300;-75
2023/03/05 07:15:38;;;;;;;9.50;3.08;;;;;;;;;;5024806;28;99585;-74
2023/03/05 07:18:05;;;;;;;10.35;2.97;;;;;;;;;;5015021;28;100463;-75
2023/03/05 07:20:36;;;;;;;6.47;2.63;;;;;;;;;;5027632;27;98280;-75
2023/03/05 07:23:03;;;;;;;3.33;2.50;;;;;;;;;;5028155;27;98814;-75
2023/03/05 07:25:30;;;;;;;6.95;2.80;;;;;;;;;;5027809;27;99130;-75
2023/03/05 07:27:56;;;;;;;6.78;2.88;;;;;;;;;;5028287;27;98240;-75
2023/03/05 07:30:23;;;;;;;6.68;2.75;;;;;;;;;;5024757;27;99341;-75
2023/03/05 07:32:52;;;;;;;6.45;2.55;;;;;;;;;;5026800;28;99742;-75
2023/03/05 07:35:19;;;;;;;6.57;2.63;;;;;;;;;;5028444;28;99099;-75
2023/03/05 07:37:45;;;;;;;3.17;2.30;;;;;;;;;;5026143;27;99265;-74
2023/03/05 07:40:12;;;;;;;6.10;2.08;;;;;;;;;;5020168;27;98380;-74
2023/03/05 07:42:38;;;;;;;6.10;1.83;;;;;;;;;;5012624;27;99608;-75
2023/03/05 07:45:20;;;;;;;4.07;2.10;;;;;;;;;;5010140;28;101057;-75
2023/03/05 07:47:47;;;;;;;4.93;1.92;;;;;;;;;;5015663;27;98463;-75
2023/03/05 07:50:13;;;;;;;2.58;1.50;;;;;;;;;;5015867;28;100540;-74
2023/03/05 07:52:42;;;;;;;4.18;1.92;;;;;;;;;;5014916;27;99944;-75
2023/03/05 07:55:14;;;;;;;6.10;2.45;;;;;;;;;;5015714;27;100574;-73
2023/03/05 07:57:40;;;;;;;2.60;1.90;;;;;;;;;;5019246;28;99985;-75
2023/03/05 08:00:07;;;;;;;8.35;2.17;;;;;;;;;;5031213;27;99573;-74
2023/03/05 08:02:37;;;;;;;4.95;2.10;;;;;;;;;;5014397;27;100524;-73
2023/03/05 08:05:04;;;;;;;6.75;2.20;;;;;;;;;;5010366;27;100129;-74
2023/03/05 08:07:30;;;;;;;7.15;1.95;;;;;;;;;;5026072;28;98361;-75
2023/03/05 08:09:57;;;;;;;4.47;2.42;;;;;;;;;;5030455;28;99451;-75
2023/03/05 08:12:23;;;;;;;5.65;1.65;;;;;;;;;;5010809;28;99123;-75
2023/03/05 08:14:50;;;;;;;5.30;2.00;;;;;;;;;;5011604;28;98243;-77
2023/03/05 08:17:19;;;;;;;3.05;1.70;;;;;;;;;;5014916;28;99512;-75
2023/03/05 08:19:46;;;;;;;3.40;1.55;;;;;;;;;;5030204;28;98824;-75
2023/03/05 08:22:14;;;;;;;3.97;1.77;;;;;;;;;;5029001;28;99288;-75
2023/03/05 08:24:41;;;;;;;7.40;2.72;;;;;;;;;;5010711;28;100136;-75
2023/03/05 08:27:07;;;;;;;4.70;2.05;;;;;;;;;;5009979;28;98271;-76
2023/03/05 08:29:34;;;;;;;5.20;2.00;;;;;;;;;;5011649;28;99109;-75
2023/03/05 08:32:00;;;;;;;4.25;2.10;;;;;;;;;;5010118;28;98943;-74
2023/03/05 08:34:27;;;;;;;4.57;1.85;;;;;;;;;;5020855;28;98204;-75
2023/03/05 08:36:53;;;;;;;5.28;1.80;;;;;;;;;;5031128;28;99447;-74
2023/03/05 08:39:19;;;;;;;6.03;2.30;;;;;;;;;;5034028;28;99990;-74
2023/03/05 08:41:46;;;;;;;1.65;1.55;;;;;;;;;;5029684;28;99412;-75
2023/03/05 08:44:12;;;;;;;6.25;2.28;;;;;;;;;;5014767;28;98881;-75
2023/03/05 08:46:39;;;;;;;2.95;1.17;;;;;;;;;;5028369;28;98235;-74
2023/03/05 08:49:08;;;;;;;4.70;1.65;;;;;;;;;;5014970;27;99413;-75
2023/03/05 08:51:35;;;;;;;3.33;1.95;;;;;;;;;;5011277;28;100106;-75
2023/03/05 08:54:05;;;;;;;6.88;2.30;;;;;;;;;;5022286;28;98229;-75
2023/03/05 08:56:33;;;;;;;4.53;1.80;;;;;;;;;;5031176;27;99286;-76
2023/03/05 08:59:00;;;;;;;6.88;1.95;;;;;;;;;;5028792;27;100028;-74
2023/03/05 09:01:27;;;;;;;2.75;1.90;;;;;;;;;;5033815;28;98385;-75
2023/03/05 09:03:53;;;;;;;5.95;2.22;;;;;;;;;;5029701;28;100945;-75
2023/03/05 09:06:20;;;;;;;5.55;2.20;;;;;;;;;;5030723;28;98102;-74
2023/03/05 09:08:46;;;;;;;10.68;2.35;;;;;;;;;;5025504;27;98612;-75
2023/03/05 09:11:13;;;;;;;6.15;2.00;;;;;;;;;;5010641;28;100018;-75
2023/03/05 09:13:39;;;;;;;4.93;3.10;;;;;;;;;;5010096;28;98343;-75
2023/03/05 09:16:07;;;;;;;4.97;1.63;;;;;;;;;;5009353;28;99593;-75
2023/03/05 09:18:35;;;;;;;3.03;1.83;;;;;;;;;;5010102;28;99866;-75
2023/03/05 09:21:11;;;;;;;4.90;1.45;;;;;;;;;;5013404;28;98876;-76
2023/03/05 09:23:37;;;;;;;4.65;1.60;;;;;;;;;;5009585;27;100017;-75
2023/03/05 09:26:05;;;;;;;3.67;2.10;;;;;;;;;;5017388;27;98317;-74
2023/03/05 09:28:32;;;;;;;2.25;1.63;;;;;;;;;;5029738;28;98858;-74
2023/03/05 09:31:02;;;;;;;6.68;1.63;;;;;;;;;;5028858;27;99539;-75
2023/03/05 09:33:29;;;;;;;4.75;1.80;;;;;;;;;;5026100;28;101383;-75
2023/03/05 09:35:56;;;;;;;2.67;1.45;;;;;;;;;;5026193;28;99634;-74
2023/03/05 09:38:22;;;;;;;5.72;4.45;;;;;;;;;;5016898;28;99930;-75
2023/03/05 09:40:58;;;;;;;4.28;2.45;;;;;;;;;;5010079;28;98234;-74
2023/03/05 09:43:30;;;;;;;5.57;1.92;;;;;;;;;;5021470;28;99491;-75
2023/03/05 09:45:56;;;;;;;8.25;1.98;;;;;;;;;;5030151;28;98094;-75
2023/03/05 09:48:24;;;;;;;4.80;1.65;;;;;;;;;;5029846;27;99801;-75
2023/03/05 09:51:00;;;;;;;2.45;1.63;;;;;;;;;;5024366;28;100508;-75
2023/03/05 09:53:27;;;;;;;6.35;2.63;;;;;;;;;;5026195;27;98505;-75
2023/03/05 09:55:54;;;;;;;6.68;2.03;;;;;;;;;;5028404;28;99703;-75
2023/03/05 09:58:29;;;;;;;3.13;1.73;;;;;;;;;;5020263;27;99128;-75
2023/03/05 10:01:07;;;;;;;8.30;1.85;;;;;;;;;;5012008;28;98256;-75
2023/03/05 10:03:46;;;;;;;7.85;2.10;;;;;;;;;;5028334;27;99444;-75
2023/03/05 10:06:21;;;;;;;3.17;1.00;;;;;;;;;;5026027;27;101170;-75
2023/03/05 10:09:01;;;;;;;5.68;1.35;;;;;;;;;;5029334;27;98401;-75
2023/03/05 10:11:28;;;;;;;6.22;1.60;;;;;;;;;;5023891;28;99297;-75
2023/03/05 10:13:54;;;;;;;4.47;1.30;;;;;;;;;;5020751;27;98362;-74
2023/03/05 10:16:30;;;;;;;8.43;1.58;;;;;;;;;;5017837;28;98582;-75
2023/03/05 10:19:06;;;;;;;7.85;1.48;;;;;;;;;;5021955;27;99348;-75
2023/03/05 10:21:38;;;;;;;2.25;1.60;;;;;;;;;;5028773;27;98297;-76
2023/03/05 10:24:26;;;;;;;5.63;1.23;;;;;;;;;;5027678;27;99562;-75
2023/03/05 10:27:04;;;;;;;1.77;1.10;;;;;;;;;;5018507;28;100984;-75
2023/03/05 10:29:52;;;;;;;2.03;1.15;;;;;;;;;;5027620;28;98994;-76
2023/03/05 10:32:35;;;;;;;2.05;1.27;;;;;;;;;;5028614;28;100176;-76
2023/03/05 10:35:20;;;;;;;1.02;0.90;;;;;;;;;;5027647;27;98246;-76
2023/03/05 10:37:46;;;;;;;1.55;0.98;;;;;;;;;;5027338;28;98097;-78
2023/03/05 10:40:17;;;;;;;3.13;1.65;;;;;;;;;;5028338;27;99975;-77
2023/03/05 10:42:49;;;;;;;0.95;0.90;;;;;;;;;;5029306;27;98270;-77
2023/03/05 10:45:18;;;;;;;2.88;1.00;;;;;;;;;;5029582;28;99423;-77
2023/03/05 10:47:51;;;;;;;2.22;1.20;;;;;;;;;;5027995;27;99439;-77
2023/03/05 10:50:26;;;;;;;5.80;1.40;;;;;;;;;;5026809;27;98218;-77
2023/03/05 10:53:06;;;;;;;1.30;1.00;;;;;;;;;;5029505;27;99137;-76
2023/03/05 10:55:32;;;;;;;2.83;1.10;;;;;;;;;;5010505;27;98302;-76
2023/03/05 10:57:59;;;;;;;1.55;1.30;;;;;;;;;;5008368;28;98533;-77
2023/03/05 11:00:27;;;;;;;4.45;1.40;;;;;;;;;;5007893;28;99331;-77
2023/03/05 11:03:03;;;;;;;3.47;1.17;;;;;;;;;;5009682;28;98468;-76
2023/03/05 11:05:30;;;;;;;9.32;1.98;;;;;;;;;;5009839;28;99533;-77
2023/03/05 11:07:59;;;;;;;5.43;1.35;;;;;;;;;;5007022;28;98888;-76
2023/03/05 11:10:25;;;;;;;3.47;1.05;;;;;;;;;;5015177;28;98269;-76
2023/03/05 11:12:53;;;;;;;4.15;1.30;;;;;;;;;;5029378;28;98673;-76
2023/03/05 11:15:26;;;;;;;1.90;0.90;;;;;;;;;;5030906;27;99061;-78
2023/03/05 11:18:03;;;;;;;3.45;1.17;;;;;;;;;;5029225;27;99836;-76
2023/03/05 11:20:34;;;;;;;2.25;1.02;;;;;;;;;;5028865;27;99262;-76
2023/03/05 11:23:03;;;;;;;4.53;1.00;;;;;;;;;;5029542;27;98184;-76
2023/03/05 11:25:30;;;;;;;3.55;1.27;;;;;;;;;;5032232;28;99434;-76
2023/03/05 11:27:58;;;;;;;4.47;1.00;;;;;;;;;;5031289;27;99420;-76
2023/03/05 11:30:26;;;;;;;1.50;0.82;;;;;;;;;;5032014;28;98933;-75
2023/03/05 11:33:08;;;;;;;3.13;1.02;;;;;;;;;;5032169;27;98576;-76
2023/03/05 11:35:37;;;;;;;3.83;1.42;;;;;;;;;;5025222;27;99654;-76
2023/03/05 11:38:05;;;;;;;3.47;1.00;;;;;;;;;;5018256;28;98577;-75
2023/03/05 11:40:34;;;;;;;2.85;1.23;;;;;;;;;;5030587;27;99896;-75
2023/03/05 11:43:02;;;;;;;2.53;1.40;;;;;;;;;;5030930;27;98024;-75
2023/03/05 11:45:30;;;;;;;2.05;1.10;;;;;;;;;;5031432;27;99061;-75
2023/03/05 11:48:03;;;;;;;4.88;1.02;;;;;;;;;;5031390;27;100058;-75
2023/03/05 11:50:31;;;;;;;1.63;0.80;;;;;;;;;;5031408;27;98279;-75
2023/03/05 11:53:01;;;;;;;2.80;0.88;;;;;;;;;;5031310;27;98378;-74
2023/03/05 11:55:29;;;;;;;6.47;1.02;;;;;;;;;;5031126;27;99228;-75
2023/03/05 11:58:14;;;;;;;1.52;1.00;;;;;;;;;;5034715;27;98168;-76
2023/03/05 12:00:44;;;;;;;1.50;1.00;;;;;;;;;;5031856;28;99874;-76
2023/03/05 12:03:14;;;;;;;4.03;1.00;;;;;;;;;;5031146;27;98129;-76
2023/03/05 12:05:43;;;;;;;2.63;0.85;;;;;;;;;;5030503;27;99602;-76
2023/03/05 12:08:14;;;;;;;4.50;0.98;;;;;;;;;;5022637;28;100758;-76
2023/03/05 12:10:41;;;;;;;2.58;1.00;;;;;;;;;;5011058;28;98176;-77
2023/03/05 12:13:27;;;;;;;0.98;0.80;;;;;;;;;;5010733;28;98706;-76
2023/03/05 12:15:59;;;;;;;3.35;0.88;;;;;;;;;;5010030;28;99155;-76
2023/03/05 12:18:31;;;;;;;4.60;1.20;;;;;;;;;;5010258;28;98050;-76
2023/03/05 12:20:57;;;;;;;10.73;1.33;;;;;;;;;;5013767;28;98678;-76
2023/03/05 12:23:26;;;;;;;3.08;0.80;;;;;;;;;;5011519;28;98465;-75
2023/03/05 12:25:58;;;;;;;1.77;0.98;;;;;;;;;;5024767;28;98506;-77
2023/03/05 12:28:27;;;;;;;2.35;0.70;;;;;;;;;;5018166;27;99853;-77
2023/03/05 12:30:55;;;;;;;2.83;0.88;;;;;;;;;;5017844;28;98778;-77
2023/03/05 12:33:48;;;;;;;3.53;1.08;;;;;;;;;;5023328;28;99601;-74
2023/03/05 12:36:20;;;;;;;0.80;0.80;;;;;;;;;;5020115;28;100557;-75
2023/03/05 12:38:52;;;;;;;1.83;0.80;;;;;;;;;;5020072;28;99805;-74
2023/03/05 12:41:21;;;;;;;1.95;0.73;;;;;;;;;;5027692;27;99035;-78
2023/03/05 12:44:16;;;;;;;4.93;1.27;;;;;;;;;;5030303;28;99398;-77
2023/03/05 12:47:03;;;;;;;3.45;1.35;;;;;;;;;;5016556;27;98893;-76
2023/03/05 12:49:47;;;;;;;4.53;1.10;;;;;;;;;;5021055;28;100228;-76
2023/03/05 12:52:21;;;;;;;1.88;1.10;;;;;;;;;;5011051;28;98304;-76
2023/03/05 12:54:56;;;;;;;4.35;0.80;;;;;;;;;;5009811;28;101864;-76
2023/03/05 12:57:28;;;;;;;6.13;1.30;;;;;;;;;;5009849;28;99952;-76
2023/03/05 13:00:00;;;;;;;3.90;0.95;;;;;;;;;;5025872;28;98280;-77
2023/03/05 13:02:37;;;;;;;0.77;0.60;;;;;;;;;;5027428;27;98903;-76
2023/03/05 13:05:13;;;;;;;2.55;0.90;;;;;;;;;;5027920;27;99981;-76
2023/03/05 13:07:40;;;;;;;2.47;0.93;;;;;;;;;;5032590;27;98153;-77
2023/03/05 13:10:19;;;;;;;2.22;1.27;;;;;;;;;;5028264;27;101515;-77
2023/03/05 13:12:51;;;;;;;5.07;0.98;;;;;;;;;;5030965;28;98138;-76
2023/03/05 13:15:18;;;;;;;3.80;0.90;;;;;;;;;;5029275;27;98604;-76
2023/03/05 13:18:07;;;;;;;4.00;1.00;;;;;;;;;;5027494;27;99303;-76
2023/03/05 13:20:37;;;;;;;1.65;0.80;;;;;;;;;;5027000;27;98953;-77
2023/03/05 13:23:04;;;;;;;2.75;1.10;;;;;;;;;;5029043;27;99401;-77
2023/03/05 13:25:30;;;;;;;1.92;0.93;;;;;;;;;;5027085;27;99987;-76
2023/03/05 13:28:05;;;;;;;3.40;1.42;;;;;;;;;;5026087;28;98292;-76
2023/03/05 13:30:32;;;;;;;1.67;0.80;;;;;;;;;;5033788;27;99729;-76
2023/03/05 13:33:01;;;;;;;2.72;0.98;;;;;;;;;;5027941;27;98293;-76
2023/03/05 13:35:43;;;;;;;1.42;1.02;;;;;;;;;;5026107;28;98657;-75
2023/03/05 13:38:23;;;;;;;1.13;0.98;;;;;;;;;;5029852;27;99757;-75
2023/03/05 13:41:06;;;;;;;4.40;1.13;;;;;;;;;;5029856;28;98373;-76
2023/03/05 13:43:41;;;;;;;1.85;0.80;;;;;;;;;;5029454;27;99588;-75
2023/03/05 13:46:08;;;;;;;4.75;1.55;;;;;;;;;;5025821;27;99099;-75
2023/03/05 13:48:34;;;;;;;2.50;1.00;;;;;;;;;;5023881;28;98397;-75
2023/03/05 13:51:05;;;;;;;1.52;1.00;;;;;;;;;;5032499;27;99001;-77
2023/03/05 13:53:33;;;;;;;5.60;1.17;;;;;;;;;;5014980;27;98117;-75
2023/03/05 13:56:04;;;;;;;2.72;1.20;;;;;;;;;;5010087;28;98722;-76
2023/03/05 13:58:48;;;;;;;2.40;1.30;;;;;;;;;;5009018;28;99255;-76
2023/03/05 14:01:18;;;;;;;2.70;1.02;;;;;;;;;;5009492;28;98303;-76
2023/03/05 14:03:47;;;;;;;1.98;1.08;;;;;;;;;;5018994;28;99288;-76
2023/03/05 14:06:15;;;;;;;3.03;1.10;;;;;;;;;;5010559;28;100205;-76
2023/03/05 14:08:42;;;;;;;2.20;0.90;;;;;;;;;;5029748;27;98238;-76
2023/03/05 14:11:12;;;;;;;4.50;1.45;;;;;;;;;;5029083;27;98334;-76
2023/03/05 14:13:40;;;;;;;2.97;1.10;;;;;;;;;;5031225;27;98809;-76
2023/03/05 14:16:08;;;;;;;4.68;1.25;;;;;;;;;;5020807;28;99822;-75
2023/03/05 14:18:35;;;;;;;4.60;1.27;;;;;;;;;;5024643;28;98662;-76
2023/03/05 14:21:07;;;;;;;3.70;1.13;;;;;;;;;;5028851;27;99917;-76
2023/03/05 14:23:38;;;;;;;3.22;1.23;;;;;;;;;;5019600;27;98945;-75
2023/03/05 14:26:20;;;;;;;1.75;1.00;;;;;;;;;;5023961;28;100124;-76
2023/03/05 14:28:51;;;;;;;3.28;1.20;;;;;;;;;;5018950;27;99669;-76
2023/03/05 14:31:18;;;;;;;2.42;1.15;;;;;;;;;;5026260;28;98565;-75
2023/03/05 14:33:45;;;;;;;4.15;1.35;;;;;;;;;;5028542;27;100044;-76
2023/03/05 14:36:12;;;;;;;2.60;1.33;;;;;;;;;;5032417;27;98821;-75
2023/03/05 14:38:40;;;;;;;4.55;1.25;;;;;;;;;;5027699;27;99878;-75
2023/03/05 14:41:31;;;;;;;5.88;1.83;;;;;;;;;;5028651;27;98237;-76
2023/03/05 14:43:57;;;;;;;2.63;1.60;;;;;;;;;;5019277;27;99730;-76
2023/03/05 14:46:24;;;;;;;2.97;1.70;;;;;;;;;;5028707;28;99990;-75
2023/03/05 14:48:50;;;;;;;1.90;1.70;;;;;;;;;;5028641;28;98344;-75